sensor_id;sensor_type;location;lat;lon;timestamp;P1;durP1;ratioP1;P2;durP2;ratioP2
79036;SDS011;68434;59.896;30.474;2023-09-18T00:00:46;2.28;;;1.25;;
79036;SDS011;68434;59.896;30.474;2023-09-18T00:03:15;3.28;;;1.10;;
79036;SDS011;68434;59.896;30.474;2023-09-18T00:05:43;2.28;;;1.23;;
79036;SDS011;68434;59.896;30.474;2023-09-18T00:08:12;1.92;;;1.00;;
79036;SDS011;68434;59.896;30.474;2023-09-18T00:10:40;1.95;;;1.02;;
79036;SDS011;68434;59.896;30.474;2023-09-18T00:15:35;1.23;;;1.00;;
79036;SDS011;68434;59.896;30.474;2023-09-18T00:20:31;1.73;;;1.10;;
79036;SDS011;68434;59.896;30.474;2023-09-18T00:22:58;1.98;;;1.00;;
79036;SDS011;68434;59.896;30.474;2023-09-18T00:25:27;1.35;;;1.00;;
79036;SDS011;68434;59.896;30.474;2023-09-18T00:27:56;2.05;;;1.00;;
79036;SDS011;68434;59.896;30.474;2023-09-18T00:30:23;1.35;;;0.98;;
79036;SDS011;68434;59.896;30.474;2023-09-18T00:32:51;1.92;;;1.15;;
79036;SDS011;68434;59.896;30.474;2023-09-18T00:35:18;1.35;;;0.88;;
79036;SDS011;68434;59.896;30.474;2023-09-18T00:37:47;3.95;;;1.73;;
79036;SDS011;68434;59.896;30.474;2023-09-18T00:40:15;1.40;;;0.93;;
79036;SDS011;68434;59.896;30.474;2023-09-18T00:42:46;1.92;;;1.00;;
79036;SDS011;68434;59.896;30.474;2023-09-18T00:45:14;5.03;;;1.00;;
79036;SDS011;68434;59.896;30.474;2023-09-18T00:47:42;1.77;;;0.75;;
79036;SDS011;68434;59.896;30.474;2023-09-18T00:50:10;0.77;;;0.70;;
79036;SDS011;68434;59.896;30.474;2023-09-18T00:52:39;1.38;;;1.00;;
79036;SDS011;68434;59.896;30.474;2023-09-18T00:55:08;1.30;;;0.90;;
79036;SDS011;68434;59.896;30.474;2023-09-18T00:57:37;1.00;;;0.90;;
79036;SDS011;68434;59.896;30.474;2023-09-18T01:00:07;0.80;;;0.77;;
79036;SDS011;68434;59.896;30.474;2023-09-18T01:02:35;1.50;;;0.80;;
79036;SDS011;68434;59.896;30.474;2023-09-18T01:05:04;1.17;;;0.90;;
79036;SDS011;68434;59.896;30.474;2023-09-18T01:07:31;1.90;;;0.88;;
79036;SDS011;68434;59.896;30.474;2023-09-18T01:09:59;2.22;;;0.95;;
79036;SDS011;68434;59.896;30.474;2023-09-18T01:12:30;1.73;;;0.88;;
79036;SDS011;68434;59.896;30.474;2023-09-18T01:15:08;0.65;;;0.65;;
79036;SDS011;68434;59.896;30.474;2023-09-18T01:17:41;0.98;;;0.90;;
79036;SDS011;68434;59.896;30.474;2023-09-18T01:20:11;0.75;;;0.60;;
79036;SDS011;68434;59.896;30.474;2023-09-18T01:22:40;0.65;;;0.65;;
79036;SDS011;68434;59.896;30.474;2023-09-18T01:25:09;1.00;;;0.90;;
79036;SDS011;68434;59.896;30.474;2023-09-18T01:27:36;1.10;;;0.65;;
79036;SDS011;68434;59.896;30.474;2023-09-18T01:30:04;3.08;;;1.08;;
79036;SDS011;68434;59.896;30.474;2023-09-18T01:32:32;2.13;;;1.00;;
79036;SDS011;68434;59.896;30.474;2023-09-18T01:35:03;1.20;;;0.88;;
79036;SDS011;68434;59.896;30.474;2023-09-18T01:37:33;1.85;;;1.00;;
79036;SDS011;68434;59.896;30.474;2023-09-18T01:40:05;3.42;;;1.10;;
79036;SDS011;68434;59.896;30.474;2023-09-18T01:42:33;1.20;;;0.88;;
79036;SDS011;68434;59.896;30.474;2023-09-18T01:45:01;1.83;;;1.00;;
79036;SDS011;68434;59.896;30.474;2023-09-18T01:47:32;1.42;;;0.70;;
79036;SDS011;68434;59.896;30.474;2023-09-18T01:50:02;1.05;;;0.90;;
79036;SDS011;68434;59.896;30.474;2023-09-18T01:52:31;0.77;;;0.77;;
79036;SDS011;68434;59.896;30.474;2023-09-18T01:55:00;1.55;;;0.80;;
79036;SDS011;68434;59.896;30.474;2023-09-18T01:57:31;1.67;;;1.10;;
79036;SDS011;68434;59.896;30.474;2023-09-18T01:59:59;3.75;;;0.77;;
79036;SDS011;68434;59.896;30.474;2023-09-18T02:02:27;1.40;;;0.90;;
79036;SDS011;68434;59.896;30.474;2023-09-18T02:04:55;0.98;;;0.82;;
79036;SDS011;68434;59.896;30.474;2023-09-18T02:07:24;0.85;;;0.77;;
79036;SDS011;68434;59.896;30.474;2023-09-18T02:09:52;2.55;;;0.70;;
79036;SDS011;68434;59.896;30.474;2023-09-18T02:12:19;1.55;;;1.10;;
79036;SDS011;68434;59.896;30.474;2023-09-18T02:14:49;1.67;;;1.10;;
79036;SDS011;68434;59.896;30.474;2023-09-18T02:17:17;1.70;;;1.08;;
79036;SDS011;68434;59.896;30.474;2023-09-18T02:19:46;8.20;;;1.13;;
79036;SDS011;68434;59.896;30.474;2023-09-18T02:22:13;2.92;;;1.00;;
79036;SDS011;68434;59.896;30.474;2023-09-18T02:27:09;1.10;;;0.85;;
79036;SDS011;68434;59.896;30.474;2023-09-18T02:32:06;1.90;;;1.17;;
79036;SDS011;68434;59.896;30.474;2023-09-18T02:34:34;3.42;;;1.00;;
79036;SDS011;68434;59.896;30.474;2023-09-18T02:37:01;1.40;;;1.10;;
79036;SDS011;68434;59.896;30.474;2023-09-18T02:39:29;2.20;;;0.80;;
79036;SDS011;68434;59.896;30.474;2023-09-18T02:41:56;0.95;;;0.82;;
79036;SDS011;68434;59.896;30.474;2023-09-18T02:44:23;1.15;;;0.85;;
79036;SDS011;68434;59.896;30.474;2023-09-18T02:46:51;0.93;;;0.80;;
79036;SDS011;68434;59.896;30.474;2023-09-18T02:49:19;0.85;;;0.80;;
79036;SDS011;68434;59.896;30.474;2023-09-18T02:51:47;1.88;;;1.15;;
79036;SDS011;68434;59.896;30.474;2023-09-18T02:54:15;1.27;;;0.70;;
79036;SDS011;68434;59.896;30.474;2023-09-18T02:56:42;1.45;;;1.08;;
79036;SDS011;68434;59.896;30.474;2023-09-18T02:59:10;2.58;;;1.13;;
79036;SDS011;68434;59.896;30.474;2023-09-18T03:01:37;0.82;;;0.70;;
79036;SDS011;68434;59.896;30.474;2023-09-18T03:04:05;1.08;;;0.75;;
79036;SDS011;68434;59.896;30.474;2023-09-18T03:06:34;1.05;;;0.95;;
79036;SDS011;68434;59.896;30.474;2023-09-18T03:09:04;1.40;;;0.90;;
79036;SDS011;68434;59.896;30.474;2023-09-18T03:11:32;1.83;;;0.85;;
79036;SDS011;68434;59.896;30.474;2023-09-18T03:13:59;1.23;;;0.90;;
79036;SDS011;68434;59.896;30.474;2023-09-18T03:16:26;1.42;;;0.95;;
79036;SDS011;68434;59.896;30.474;2023-09-18T03:18:54;1.60;;;1.15;;
79036;SDS011;68434;59.896;30.474;2023-09-18T03:21:21;1.55;;;0.73;;
79036;SDS011;68434;59.896;30.474;2023-09-18T03:23:50;1.58;;;0.88;;
79036;SDS011;68434;59.896;30.474;2023-09-18T03:26:17;1.33;;;0.80;;
79036;SDS011;68434;59.896;30.474;2023-09-18T03:28:45;1.25;;;0.93;;
79036;SDS011;68434;59.896;30.474;2023-09-18T03:31:12;1.40;;;0.90;;
79036;SDS011;68434;59.896;30.474;2023-09-18T03:33:40;1.58;;;1.10;;
79036;SDS011;68434;59.896;30.474;2023-09-18T03:36:07;0.88;;;0.73;;
79036;SDS011;68434;59.896;30.474;2023-09-18T03:38:37;1.23;;;0.90;;
79036;SDS011;68434;59.896;30.474;2023-09-18T03:41:07;2.78;;;0.85;;
79036;SDS011;68434;59.896;30.474;2023-09-18T03:43:35;2.92;;;1.08;;
79036;SDS011;68434;59.896;30.474;2023-09-18T03:46:03;1.23;;;1.00;;
79036;SDS011;68434;59.896;30.474;2023-09-18T03:48:34;1.50;;;1.13;;
79036;SDS011;68434;59.896;30.474;2023-09-18T03:51:03;1.60;;;1.00;;
79036;SDS011;68434;59.896;30.474;2023-09-18T03:53:31;1.42;;;1.00;;
79036;SDS011;68434;59.896;30.474;2023-09-18T03:58:27;1.50;;;1.10;;
79036;SDS011;68434;59.896;30.474;2023-09-18T04:00:55;1.70;;;1.10;;
79036;SDS011;68434;59.896;30.474;2023-09-18T04:03:23;2.50;;;1.30;;
79036;SDS011;68434;59.896;30.474;2023-09-18T04:05:50;1.60;;;0.90;;
79036;SDS011;68434;59.896;30.474;2023-09-18T04:08:17;1.42;;;1.00;;
79036;SDS011;68434;59.896;30.474;2023-09-18T04:10:45;1.10;;;1.00;;
79036;SDS011;68434;59.896;30.474;2023-09-18T04:13:12;1.77;;;1.02;;
79036;SDS011;68434;59.896;30.474;2023-09-18T04:15:41;2.08;;;1.15;;
79036;SDS011;68434;59.896;30.474;2023-09-18T04:18:08;2.25;;;1.23;;
79036;SDS011;68434;59.896;30.474;2023-09-18T04:20:36;3.58;;;1.30;;
79036;SDS011;68434;59.896;30.474;2023-09-18T04:23:19;1.83;;;1.15;;
79036;SDS011;68434;59.896;30.474;2023-09-18T04:25:48;2.33;;;1.10;;
79036;SDS011;68434;59.896;30.474;2023-09-18T04:28:16;1.85;;;1.10;;
79036;SDS011;68434;59.896;30.474;2023-09-18T04:30:46;3.03;;;1.55;;
79036;SDS011;68434;59.896;30.474;2023-09-18T04:33:14;2.30;;;1.50;;
79036;SDS011;68434;59.896;30.474;2023-09-18T04:35:42;2.05;;;1.20;;
79036;SDS011;68434;59.896;30.474;2023-09-18T04:38:10;1.98;;;1.23;;
79036;SDS011;68434;59.896;30.474;2023-09-18T04:40:42;2.05;;;1.02;;
79036;SDS011;68434;59.896;30.474;2023-09-18T04:43:13;2.20;;;1.30;;
79036;SDS011;68434;59.896;30.474;2023-09-18T04:45:41;4.45;;;1.30;;
79036;SDS011;68434;59.896;30.474;2023-09-18T04:48:10;3.08;;;1.50;;
79036;SDS011;68434;59.896;30.474;2023-09-18T04:50:38;3.45;;;1.40;;
79036;SDS011;68434;59.896;30.474;2023-09-18T04:53:06;3.83;;;1.33;;
79036;SDS011;68434;59.896;30.474;2023-09-18T04:55:34;2.80;;;1.60;;
79036;SDS011;68434;59.896;30.474;2023-09-18T04:58:03;4.35;;;1.38;;
79036;SDS011;68434;59.896;30.474;2023-09-18T05:00:32;3.25;;;1.42;;
79036;SDS011;68434;59.896;30.474;2023-09-18T05:03:00;2.38;;;1.30;;
79036;SDS011;68434;59.896;30.474;2023-09-18T05:05:30;4.18;;;1.42;;
79036;SDS011;68434;59.896;30.474;2023-09-18T05:07:57;4.47;;;1.77;;
79036;SDS011;68434;59.896;30.474;2023-09-18T05:10:25;2.00;;;1.30;;
79036;SDS011;68434;59.896;30.474;2023-09-18T05:12:52;1.92;;;1.20;;
79036;SDS011;68434;59.896;30.474;2023-09-18T05:15:24;3.30;;;1.33;;
79036;SDS011;68434;59.896;30.474;2023-09-18T05:17:52;4.13;;;1.80;;
79036;SDS011;68434;59.896;30.474;2023-09-18T05:20:22;4.75;;;1.63;;
79036;SDS011;68434;59.896;30.474;2023-09-18T05:22:52;6.28;;;1.50;;
79036;SDS011;68434;59.896;30.474;2023-09-18T05:25:20;4.15;;;1.52;;
79036;SDS011;68434;59.896;30.474;2023-09-18T05:27:49;6.03;;;1.48;;
79036;SDS011;68434;59.896;30.474;2023-09-18T05:30:21;8.95;;;2.30;;
79036;SDS011;68434;59.896;30.474;2023-09-18T05:32:53;3.20;;;1.30;;
79036;SDS011;68434;59.896;30.474;2023-09-18T05:35:21;5.50;;;1.50;;
79036;SDS011;68434;59.896;30.474;2023-09-18T05:37:49;3.92;;;1.70;;
79036;SDS011;68434;59.896;30.474;2023-09-18T05:40:19;5.38;;;1.40;;
79036;SDS011;68434;59.896;30.474;2023-09-18T05:42:46;5.97;;;1.77;;
79036;SDS011;68434;59.896;30.474;2023-09-18T05:45:14;5.43;;;1.67;;
79036;SDS011;68434;59.896;30.474;2023-09-18T05:47:42;6.20;;;1.42;;
79036;SDS011;68434;59.896;30.474;2023-09-18T05:50:09;5.55;;;1.90;;
79036;SDS011;68434;59.896;30.474;2023-09-18T05:52:41;4.10;;;1.38;;
79036;SDS011;68434;59.896;30.474;2023-09-18T05:55:08;5.85;;;1.60;;
79036;SDS011;68434;59.896;30.474;2023-09-18T05:57:38;3.03;;;1.30;;
79036;SDS011;68434;59.896;30.474;2023-09-18T06:00:06;3.53;;;2.00;;
79036;SDS011;68434;59.896;30.474;2023-09-18T06:02:39;3.50;;;1.40;;
79036;SDS011;68434;59.896;30.474;2023-09-18T06:05:07;4.35;;;1.55;;
79036;SDS011;68434;59.896;30.474;2023-09-18T06:07:37;3.58;;;1.42;;
79036;SDS011;68434;59.896;30.474;2023-09-18T06:10:05;4.10;;;1.65;;
79036;SDS011;68434;59.896;30.474;2023-09-18T06:12:33;3.75;;;1.75;;
79036;SDS011;68434;59.896;30.474;2023-09-18T06:15:02;2.90;;;1.73;;
79036;SDS011;68434;59.896;30.474;2023-09-18T06:17:31;4.97;;;1.65;;
79036;SDS011;68434;59.896;30.474;2023-09-18T06:19:59;2.53;;;1.50;;
79036;SDS011;68434;59.896;30.474;2023-09-18T06:22:26;2.60;;;1.25;;
79036;SDS011;68434;59.896;30.474;2023-09-18T06:24:54;5.60;;;1.70;;
79036;SDS011;68434;59.896;30.474;2023-09-18T06:27:21;3.65;;;1.50;;
79036;SDS011;68434;59.896;30.474;2023-09-18T06:29:49;2.22;;;1.30;;
79036;SDS011;68434;59.896;30.474;2023-09-18T06:32:17;3.03;;;1.50;;
79036;SDS011;68434;59.896;30.474;2023-09-18T06:34:45;3.38;;;1.55;;
79036;SDS011;68434;59.896;30.474;2023-09-18T06:37:13;2.88;;;1.45;;
79036;SDS011;68434;59.896;30.474;2023-09-18T06:39:41;2.65;;;1.58;;
79036;SDS011;68434;59.896;30.474;2023-09-18T06:42:08;4.32;;;1.52;;
79036;SDS011;68434;59.896;30.474;2023-09-18T06:44:37;4.07;;;1.42;;
79036;SDS011;68434;59.896;30.474;2023-09-18T06:47:05;3.60;;;1.70;;
79036;SDS011;68434;59.896;30.474;2023-09-18T06:49:34;9.45;;;4.57;;
79036;SDS011;68434;59.896;30.474;2023-09-18T06:52:01;7.55;;;3.40;;
79036;SDS011;68434;59.896;30.474;2023-09-18T06:54:29;14.65;;;6.72;;
79036;SDS011;68434;59.896;30.474;2023-09-18T06:56:56;8.23;;;3.30;;
79036;SDS011;68434;59.896;30.474;2023-09-18T06:59:25;8.57;;;3.95;;
79036;SDS011;68434;59.896;30.474;2023-09-18T07:01:54;8.40;;;3.17;;
79036;SDS011;68434;59.896;30.474;2023-09-18T07:04:22;8.93;;;3.08;;
79036;SDS011;68434;59.896;30.474;2023-09-18T07:06:51;7.28;;;2.10;;
79036;SDS011;68434;59.896;30.474;2023-09-18T07:09:19;4.63;;;2.00;;
79036;SDS011;68434;59.896;30.474;2023-09-18T07:11:48;4.55;;;2.78;;
79036;SDS011;68434;59.896;30.474;2023-09-18T07:14:16;7.60;;;2.70;;
79036;SDS011;68434;59.896;30.474;2023-09-18T07:16:44;4.22;;;2.35;;
79036;SDS011;68434;59.896;30.474;2023-09-18T07:19:11;3.95;;;2.10;;
79036;SDS011;68434;59.896;30.474;2023-09-18T07:21:43;4.95;;;1.90;;
79036;SDS011;68434;59.896;30.474;2023-09-18T07:24:12;4.20;;;2.00;;
79036;SDS011;68434;59.896;30.474;2023-09-18T07:26:45;7.80;;;3.65;;
79036;SDS011;68434;59.896;30.474;2023-09-18T07:29:14;4.22;;;2.17;;
79036;SDS011;68434;59.896;30.474;2023-09-18T07:31:42;4.13;;;2.30;;
79036;SDS011;68434;59.896;30.474;2023-09-18T07:34:09;4.70;;;2.05;;
79036;SDS011;68434;59.896;30.474;2023-09-18T07:36:37;3.53;;;1.90;;
79036;SDS011;68434;59.896;30.474;2023-09-18T07:39:04;3.38;;;2.03;;
79036;SDS011;68434;59.896;30.474;2023-09-18T07:41:33;4.30;;;1.95;;
79036;SDS011;68434;59.896;30.474;2023-09-18T07:44:01;4.05;;;1.70;;
79036;SDS011;68434;59.896;30.474;2023-09-18T07:46:29;4.97;;;1.60;;
79036;SDS011;68434;59.896;30.474;2023-09-18T07:48:56;3.25;;;1.70;;
79036;SDS011;68434;59.896;30.474;2023-09-18T07:51:24;6.30;;;3.22;;
79036;SDS011;68434;59.896;30.474;2023-09-18T07:53:51;3.00;;;1.70;;
79036;SDS011;68434;59.896;30.474;2023-09-18T07:56:19;2.58;;;1.60;;
79036;SDS011;68434;59.896;30.474;2023-09-18T07:58:48;3.88;;;2.38;;
79036;SDS011;68434;59.896;30.474;2023-09-18T08:01:16;5.20;;;1.73;;
79036;SDS011;68434;59.896;30.474;2023-09-18T08:03:43;2.45;;;1.63;;
79036;SDS011;68434;59.896;30.474;2023-09-18T08:06:13;6.55;;;2.40;;
79036;SDS011;68434;59.896;30.474;2023-09-18T08:08:44;5.57;;;2.10;;
79036;SDS011;68434;59.896;30.474;2023-09-18T08:11:12;3.25;;;1.73;;
79036;SDS011;68434;59.896;30.474;2023-09-18T08:13:40;3.20;;;1.60;;
79036;SDS011;68434;59.896;30.474;2023-09-18T08:16:09;5.00;;;1.80;;
79036;SDS011;68434;59.896;30.474;2023-09-18T08:18:38;4.10;;;2.00;;
79036;SDS011;68434;59.896;30.474;2023-09-18T08:21:09;5.28;;;2.40;;
79036;SDS011;68434;59.896;30.474;2023-09-18T08:23:39;2.83;;;1.40;;
79036;SDS011;68434;59.896;30.474;2023-09-18T08:26:06;2.22;;;1.23;;
79036;SDS011;68434;59.896;30.474;2023-09-18T08:28:34;2.60;;;1.48;;
79036;SDS011;68434;59.896;30.474;2023-09-18T08:31:04;1.85;;;1.00;;
79036;SDS011;68434;59.896;30.474;2023-09-18T08:33:33;3.08;;;1.40;;
79036;SDS011;68434;59.896;30.474;2023-09-18T08:36:02;1.55;;;1.25;;
79036;SDS011;68434;59.896;30.474;2023-09-18T08:38:29;2.55;;;1.33;;
79036;SDS011;68434;59.896;30.474;2023-09-18T08:40:57;2.85;;;1.63;;
79036;SDS011;68434;59.896;30.474;2023-09-18T08:43:25;2.97;;;1.60;;
79036;SDS011;68434;59.896;30.474;2023-09-18T08:48:27;2.72;;;1.38;;
79036;SDS011;68434;59.896;30.474;2023-09-18T08:51:02;3.35;;;1.60;;
79036;SDS011;68434;59.896;30.474;2023-09-18T08:53:31;3.22;;;1.80;;
79036;SDS011;68434;59.896;30.474;2023-09-18T08:58:27;4.55;;;1.35;;
79036;SDS011;68434;59.896;30.474;2023-09-18T09:00:57;3.10;;;1.80;;
79036;SDS011;68434;59.896;30.474;2023-09-18T09:03:32;2.78;;;1.52;;
79036;SDS011;68434;59.896;30.474;2023-09-18T09:06:03;2.20;;;1.45;;
79036;SDS011;68434;59.896;30.474;2023-09-18T09:08:31;4.40;;;1.27;;
79036;SDS011;68434;59.896;30.474;2023-09-18T09:10:59;3.75;;;1.42;;
79036;SDS011;68434;59.896;30.474;2023-09-18T09:13:26;4.22;;;1.73;;
79036;SDS011;68434;59.896;30.474;2023-09-18T09:15:55;2.70;;;1.50;;
79036;SDS011;68434;59.896;30.474;2023-09-18T09:18:24;3.85;;;1.90;;
79036;SDS011;68434;59.896;30.474;2023-09-18T09:20:52;42.13;;;22.27;;
79036;SDS011;68434;59.896;30.474;2023-09-18T09:23:26;50.97;;;21.10;;
79036;SDS011;68434;59.896;30.474;2023-09-18T09:25:59;257.98;;;65.82;;
79036;SDS011;68434;59.896;30.474;2023-09-18T09:28:39;516.25;;;173.43;;
79036;SDS011;68434;59.896;30.474;2023-09-18T09:31:09;544.00;;;202.10;;
79036;SDS011;68434;59.896;30.474;2023-09-18T09:33:37;529.72;;;214.00;;
79036;SDS011;68434;59.896;30.474;2023-09-18T09:36:06;527.53;;;228.02;;
79036;SDS011;68434;59.896;30.474;2023-09-18T09:38:35;484.35;;;209.20;;
79036;SDS011;68434;59.896;30.474;2023-09-18T09:41:04;498.95;;;228.38;;
79036;SDS011;68434;59.896;30.474;2023-09-18T09:43:35;480.65;;;206.20;;
79036;SDS011;68434;59.896;30.474;2023-09-18T09:46:03;491.33;;;204.20;;
79036;SDS011;68434;59.896;30.474;2023-09-18T09:48:30;480.85;;;209.00;;
79036;SDS011;68434;59.896;30.474;2023-09-18T09:50:59;458.70;;;202.25;;
79036;SDS011;68434;59.896;30.474;2023-09-18T09:53:42;430.42;;;195.93;;
79036;SDS011;68434;59.896;30.474;2023-09-18T09:56:12;432.95;;;186.20;;
79036;SDS011;68434;59.896;30.474;2023-09-18T09:58:40;424.15;;;184.77;;
79036;SDS011;68434;59.896;30.474;2023-09-18T10:01:11;363.40;;;144.02;;
79036;SDS011;68434;59.896;30.474;2023-09-18T10:03:43;334.23;;;145.25;;
79036;SDS011;68434;59.896;30.474;2023-09-18T10:06:12;298.08;;;137.23;;
79036;SDS011;68434;59.896;30.474;2023-09-18T10:11:09;275.42;;;114.45;;
79036;SDS011;68434;59.896;30.474;2023-09-18T10:13:42;286.30;;;123.70;;
79036;SDS011;68434;59.896;30.474;2023-09-18T10:16:16;263.73;;;116.55;;
79036;SDS011;68434;59.896;30.474;2023-09-18T10:18:50;251.80;;;115.68;;
79036;SDS011;68434;59.896;30.474;2023-09-18T10:21:26;227.90;;;103.05;;
79036;SDS011;68434;59.896;30.474;2023-09-18T10:23:59;215.55;;;95.22;;
79036;SDS011;68434;59.896;30.474;2023-09-18T10:26:41;210.70;;;101.60;;
79036;SDS011;68434;59.896;30.474;2023-09-18T10:29:15;205.52;;;100.35;;
79036;SDS011;68434;59.896;30.474;2023-09-18T10:31:44;196.32;;;90.82;;
79036;SDS011;68434;59.896;30.474;2023-09-18T10:34:13;195.50;;;88.10;;
79036;SDS011;68434;59.896;30.474;2023-09-18T10:36:43;170.13;;;82.60;;
79036;SDS011;68434;59.896;30.474;2023-09-18T10:39:13;161.20;;;80.97;;
79036;SDS011;68434;59.896;30.474;2023-09-18T10:41:48;170.85;;;79.28;;
79036;SDS011;68434;59.896;30.474;2023-09-18T10:44:18;157.35;;;76.88;;
79036;SDS011;68434;59.896;30.474;2023-09-18T10:46:46;143.30;;;65.95;;
79036;SDS011;68434;59.896;30.474;2023-09-18T10:49:14;125.97;;;62.53;;
79036;SDS011;68434;59.896;30.474;2023-09-18T10:51:43;135.63;;;63.13;;
79036;SDS011;68434;59.896;30.474;2023-09-18T10:54:15;111.25;;;55.10;;
79036;SDS011;68434;59.896;30.474;2023-09-18T10:56:43;108.07;;;54.40;;
79036;SDS011;68434;59.896;30.474;2023-09-18T10:59:13;106.60;;;55.33;;
79036;SDS011;68434;59.896;30.474;2023-09-18T11:01:41;95.65;;;47.55;;
79036;SDS011;68434;59.896;30.474;2023-09-18T11:04:10;92.60;;;46.75;;
79036;SDS011;68434;59.896;30.474;2023-09-18T11:09:40;81.82;;;37.80;;
79036;SDS011;68434;59.896;30.474;2023-09-18T11:12:09;72.32;;;38.42;;
79036;SDS011;68434;59.896;30.474;2023-09-18T11:14:48;62.83;;;35.90;;
79036;SDS011;68434;59.896;30.474;2023-09-18T11:17:30;67.38;;;35.17;;
79036;SDS011;68434;59.896;30.474;2023-09-18T11:20:09;62.55;;;32.90;;
79036;SDS011;68434;59.896;30.474;2023-09-18T11:22:48;62.90;;;33.60;;
79036;SDS011;68434;59.896;30.474;2023-09-18T11:25:35;63.65;;;29.77;;
79036;SDS011;68434;59.896;30.474;2023-09-18T11:28:04;51.28;;;29.30;;
79036;SDS011;68434;59.896;30.474;2023-09-18T11:30:36;46.47;;;26.02;;
79036;SDS011;68434;59.896;30.474;2023-09-18T11:33:05;45.53;;;24.35;;
79036;SDS011;68434;59.896;30.474;2023-09-18T11:35:34;40.88;;;23.10;;
79036;SDS011;68434;59.896;30.474;2023-09-18T11:38:03;40.75;;;21.85;;
79036;SDS011;68434;59.896;30.474;2023-09-18T11:40:33;41.35;;;21.27;;
79036;SDS011;68434;59.896;30.474;2023-09-18T11:43:24;31.80;;;19.63;;
79036;SDS011;68434;59.896;30.474;2023-09-18T11:45:57;38.92;;;18.50;;
79036;SDS011;68434;59.896;30.474;2023-09-18T11:48:28;29.90;;;17.30;;
79036;SDS011;68434;59.896;30.474;2023-09-18T11:50:58;31.98;;;15.27;;
79036;SDS011;68434;59.896;30.474;2023-09-18T11:53:33;29.15;;;15.52;;
79036;SDS011;68434;59.896;30.474;2023-09-18T11:56:04;23.95;;;13.07;;
79036;SDS011;68434;59.896;30.474;2023-09-18T11:58:46;26.00;;;14.00;;
79036;SDS011;68434;59.896;30.474;2023-09-18T12:01:19;24.48;;;12.60;;
79036;SDS011;68434;59.896;30.474;2023-09-18T12:03:52;24.13;;;13.30;;
79036;SDS011;68434;59.896;30.474;2023-09-18T12:06:21;22.25;;;12.73;;
79036;SDS011;68434;59.896;30.474;2023-09-18T12:08:51;25.30;;;13.15;;
79036;SDS011;68434;59.896;30.474;2023-09-18T12:11:22;22.20;;;11.50;;
79036;SDS011;68434;59.896;30.474;2023-09-18T12:13:50;22.38;;;13.02;;
79036;SDS011;68434;59.896;30.474;2023-09-18T12:16:20;22.88;;;12.18;;
79036;SDS011;68434;59.896;30.474;2023-09-18T12:18:48;20.20;;;11.30;;
79036;SDS011;68434;59.896;30.474;2023-09-18T12:21:17;21.33;;;11.93;;
79036;SDS011;68434;59.896;30.474;2023-09-18T12:23:45;20.17;;;10.40;;
79036;SDS011;68434;59.896;30.474;2023-09-18T12:26:16;17.67;;;10.07;;
79036;SDS011;68434;59.896;30.474;2023-09-18T12:28:46;14.25;;;8.57;;
79036;SDS011;68434;59.896;30.474;2023-09-18T12:31:15;17.67;;;10.45;;
79036;SDS011;68434;59.896;30.474;2023-09-18T12:33:44;14.55;;;8.70;;
79036;SDS011;68434;59.896;30.474;2023-09-18T12:36:18;14.93;;;7.65;;
79036;SDS011;68434;59.896;30.474;2023-09-18T12:38:55;14.13;;;7.30;;
79036;SDS011;68434;59.896;30.474;2023-09-18T12:41:25;13.80;;;6.50;;
79036;SDS011;68434;59.896;30.474;2023-09-18T12:43:54;14.48;;;7.97;;
79036;SDS011;68434;59.896;30.474;2023-09-18T12:46:21;12.13;;;6.47;;
79036;SDS011;68434;59.896;30.474;2023-09-18T12:48:51;12.93;;;6.85;;
79036;SDS011;68434;59.896;30.474;2023-09-18T12:51:28;12.50;;;6.05;;
79036;SDS011;68434;59.896;30.474;2023-09-18T12:54:00;15.95;;;6.68;;
79036;SDS011;68434;59.896;30.474;2023-09-18T12:58:59;9.80;;;5.05;;
79036;SDS011;68434;59.896;30.474;2023-09-18T13:01:32;8.77;;;5.35;;
79036;SDS011;68434;59.896;30.474;2023-09-18T13:04:04;7.85;;;4.80;;
79036;SDS011;68434;59.896;30.474;2023-09-18T13:06:32;9.60;;;5.32;;
79036;SDS011;68434;59.896;30.474;2023-09-18T13:09:16;12.25;;;4.47;;
79036;SDS011;68434;59.896;30.474;2023-09-18T13:11:55;8.85;;;4.60;;
79036;SDS011;68434;59.896;30.474;2023-09-18T13:14:24;6.82;;;4.22;;
79036;SDS011;68434;59.896;30.474;2023-09-18T13:16:52;10.48;;;4.05;;
79036;SDS011;68434;59.896;30.474;2023-09-18T13:19:22;9.82;;;4.43;;
79036;SDS011;68434;59.896;30.474;2023-09-18T13:21:49;7.07;;;3.80;;
79036;SDS011;68434;59.896;30.474;2023-09-18T13:24:26;9.05;;;4.25;;
79036;SDS011;68434;59.896;30.474;2023-09-18T13:26:55;7.40;;;4.00;;
79036;SDS011;68434;59.896;30.474;2023-09-18T13:29:25;6.50;;;3.55;;
79036;SDS011;68434;59.896;30.474;2023-09-18T13:31:53;7.10;;;4.00;;
79036;SDS011;68434;59.896;30.474;2023-09-18T13:34:22;7.25;;;3.53;;
79036;SDS011;68434;59.896;30.474;2023-09-18T13:36:50;7.43;;;3.45;;
79036;SDS011;68434;59.896;30.474;2023-09-18T13:39:18;6.82;;;3.40;;
79036;SDS011;68434;59.896;30.474;2023-09-18T13:41:46;8.07;;;3.30;;
79036;SDS011;68434;59.896;30.474;2023-09-18T13:44:14;9.05;;;2.97;;
79036;SDS011;68434;59.896;30.474;2023-09-18T13:46:42;5.40;;;2.92;;
79036;SDS011;68434;59.896;30.474;2023-09-18T13:49:09;4.45;;;2.60;;
79036;SDS011;68434;59.896;30.474;2023-09-18T13:51:39;7.30;;;2.90;;
79036;SDS011;68434;59.896;30.474;2023-09-18T13:54:06;5.47;;;3.00;;
79036;SDS011;68434;59.896;30.474;2023-09-18T13:56:34;7.22;;;2.63;;
79036;SDS011;68434;59.896;30.474;2023-09-18T13:59:02;4.90;;;2.58;;
79036;SDS011;68434;59.896;30.474;2023-09-18T14:01:30;6.10;;;2.70;;
79036;SDS011;68434;59.896;30.474;2023-09-18T14:03:58;5.13;;;3.00;;
79036;SDS011;68434;59.896;30.474;2023-09-18T14:06:26;7.30;;;2.90;;
79036;SDS011;68434;59.896;30.474;2023-09-18T14:11:23;4.00;;;2.20;;
79036;SDS011;68434;59.896;30.474;2023-09-18T14:13:51;5.35;;;2.65;;
79036;SDS011;68434;59.896;30.474;2023-09-18T14:16:19;4.32;;;2.10;;
79036;SDS011;68434;59.896;30.474;2023-09-18T14:18:49;5.13;;;2.55;;
79036;SDS011;68434;59.896;30.474;2023-09-18T14:21:19;4.70;;;2.33;;
79036;SDS011;68434;59.896;30.474;2023-09-18T14:23:47;4.65;;;2.15;;
79036;SDS011;68434;59.896;30.474;2023-09-18T14:26:18;8.90;;;2.35;;
79036;SDS011;68434;59.896;30.474;2023-09-18T14:28:47;3.92;;;2.00;;
79036;SDS011;68434;59.896;30.474;2023-09-18T14:31:15;4.25;;;2.30;;
79036;SDS011;68434;59.896;30.474;2023-09-18T14:33:45;5.60;;;2.00;;
79036;SDS011;68434;59.896;30.474;2023-09-18T14:36:12;3.97;;;2.00;;
79036;SDS011;68434;59.896;30.474;2023-09-18T14:38:40;6.55;;;2.90;;
79036;SDS011;68434;59.896;30.474;2023-09-18T14:41:11;5.88;;;2.78;;
79036;SDS011;68434;59.896;30.474;2023-09-18T14:43:44;4.68;;;1.92;;
79036;SDS011;68434;59.896;30.474;2023-09-18T14:46:12;4.05;;;2.30;;
79036;SDS011;68434;59.896;30.474;2023-09-18T14:48:39;6.38;;;2.35;;
79036;SDS011;68434;59.896;30.474;2023-09-18T14:51:07;6.15;;;2.20;;
79036;SDS011;68434;59.896;30.474;2023-09-18T14:53:35;4.38;;;2.15;;
79036;SDS011;68434;59.896;30.474;2023-09-18T14:56:03;14.15;;;2.85;;
79036;SDS011;68434;59.896;30.474;2023-09-18T14:58:40;4.18;;;1.92;;
79036;SDS011;68434;59.896;30.474;2023-09-18T15:01:12;3.58;;;2.20;;
79036;SDS011;68434;59.896;30.474;2023-09-18T15:03:40;3.90;;;2.22;;
79036;SDS011;68434;59.896;30.474;2023-09-18T15:06:07;4.57;;;2.05;;